Time;durP1;ratioP1;P1;durP2;ratioP2;P2;SDS_P1;SDS_P2;PMS_P1;PMS_P2;Temp;Humidity;BMP_temperature;BMP_pressure;BME280_temperature;BME280_humidity;BME280_pressure;Samples;Min_cycle;Max_cycle;Signal;HPM_P1;HPM_P2
2023/02/18 00:02:22;;;;;;;1.75;1.60;;;;;;;;;;5057624;28;20048;-90
2023/02/18 00:04:49;;;;;;;2.45;2.35;;;;;;;;;;5057499;28;20487;-90
2023/02/18 00:07:15;;;;;;;3.28;2.55;;;;;;;;;;5057519;28;20049;-91
2023/02/18 00:09:42;;;;;;;1.80;1.70;;;;;;;;;;5057545;28;20111;-90
2023/02/18 00:12:08;;;;;;;2.15;2.05;;;;;;;;;;5057197;28;20090;-90
2023/02/18 00:14:35;;;;;;;4.38;4.18;;;;;;;;;;5056675;28;20060;-89
2023/02/18 00:17:03;;;;;;;1.90;1.80;;;;;;;;;;5056566;28;20671;-90
2023/02/18 00:19:29;;;;;;;1.33;1.30;;;;;;;;;;5056759;28;20099;-90
2023/02/18 00:21:56;;;;;;;3.08;2.88;;;;;;;;;;5056345;28;20498;-90
2023/02/18 00:24:22;;;;;;;0.98;0.98;;;;;;;;;;5056671;28;20103;-90
2023/02/18 00:26:50;;;;;;;2.75;2.42;;;;;;;;;;5056737;28;20049;-90
2023/02/18 00:29:16;;;;;;;2.22;1.88;;;;;;;;;;5056271;28;20053;-90
2023/02/18 00:31:43;;;;;;;1.10;1.10;;;;;;;;;;5056418;28;20052;-90
2023/02/18 00:34:12;;;;;;;4.70;3.20;;;;;;;;;;5055270;28;20107;-88
2023/02/18 00:36:38;;;;;;;1.10;0.93;;;;;;;;;;5056648;28;20045;-88
2023/02/18 00:39:06;;;;;;;3.00;2.58;;;;;;;;;;5056238;28;20106;-89
2023/02/18 00:41:34;;;;;;;2.85;2.63;;;;;;;;;;5056417;28;20060;-89
2023/02/18 00:44:00;;;;;;;2.75;2.55;;;;;;;;;;5056872;28;20054;-88
2023/02/18 00:46:27;;;;;;;1.15;1.15;;;;;;;;;;5058993;28;20057;-89
2023/02/18 00:48:53;;;;;;;3.35;3.15;;;;;;;;;;5059229;28;20052;-88
2023/02/18 00:51:22;;;;;;;4.03;2.55;;;;;;;;;;5056847;28;20045;-89
2023/02/18 00:53:48;;;;;;;2.13;1.92;;;;;;;;;;5055871;28;20064;-90
2023/02/18 00:56:15;;;;;;;4.57;4.38;;;;;;;;;;5055974;28;20053;-89
2023/02/18 00:58:42;;;;;;;1.55;1.50;;;;;;;;;;5055694;28;20049;-89
2023/02/18 01:01:09;;;;;;;4.32;3.05;;;;;;;;;;5056102;28;20053;-90
2023/02/18 01:03:35;;;;;;;1.70;1.60;;;;;;;;;;5055765;28;20056;-90
2023/02/18 01:06:02;;;;;;;5.35;1.70;;;;;;;;;;5055680;28;20099;-90
2023/02/18 01:08:30;;;;;;;1.48;1.38;;;;;;;;;;5055946;28;20049;-90
2023/02/18 01:10:57;;;;;;;1.73;1.65;;;;;;;;;;5055407;28;20442;-90
2023/02/18 01:13:24;;;;;;;2.63;2.42;;;;;;;;;;5055966;28;20049;-89
2023/02/18 01:15:51;;;;;;;1.80;1.70;;;;;;;;;;5055537;28;20049;-89
2023/02/18 01:18:17;;;;;;;2.05;1.95;;;;;;;;;;5055758;28;20045;-89
2023/02/18 01:20:44;;;;;;;2.28;1.92;;;;;;;;;;5055373;28;20053;-88
2023/02/18 01:23:11;;;;;;;1.42;1.42;;;;;;;;;;5055322;28;20053;-90
2023/02/18 01:25:39;;;;;;;2.28;1.88;;;;;;;;;;5055931;28;20057;-90
2023/02/18 01:28:06;;;;;;;2.00;1.83;;;;;;;;;;5055233;28;20052;-88
2023/02/18 01:30:33;;;;;;;1.85;1.75;;;;;;;;;;5055545;28;20049;-88
2023/02/18 01:33:00;;;;;;;1.90;1.45;;;;;;;;;;5055435;28;20045;-88
2023/02/18 01:35:26;;;;;;;3.50;3.00;;;;;;;;;;5054834;28;20095;-89
2023/02/18 01:37:53;;;;;;;0.70;0.68;;;;;;;;;;5055051;28;20045;-89
2023/02/18 01:40:20;;;;;;;1.55;1.45;;;;;;;;;;5055157;28;20056;-89
2023/02/18 01:42:49;;;;;;;4.15;1.73;;;;;;;;;;5054707;28;20494;-87
2023/02/18 01:45:40;;;;;;;1.33;1.23;;;;;;;;;;5054197;28;20395;-87
2023/02/18 01:48:10;;;;;;;0.68;0.68;;;;;;;;;;5054675;28;20061;-88
2023/02/18 01:50:38;;;;;;;0.55;0.50;;;;;;;;;;5054484;28;20055;-90
2023/02/18 01:53:05;;;;;;;0.75;0.75;;;;;;;;;;5054744;28;20053;-89
2023/02/18 01:55:32;;;;;;;1.52;1.50;;;;;;;;;;5054573;28;20041;-88
2023/02/18 01:58:00;;;;;;;0.75;0.75;;;;;;;;;;5055043;28;20052;-89
2023/02/18 02:00:26;;;;;;;0.70;0.70;;;;;;;;;;5054701;28;20056;-89
2023/02/18 02:02:53;;;;;;;1.77;1.70;;;;;;;;;;5069688;28;20051;-90
2023/02/18 02:05:20;;;;;;;1.85;1.75;;;;;;;;;;5074877;28;20052;-89
2023/02/18 02:07:48;;;;;;;3.33;3.08;;;;;;;;;;5075389;28;20117;-90
2023/02/18 02:10:15;;;;;;;0.93;0.90;;;;;;;;;;5074652;28;20049;-87
2023/02/18 02:12:47;;;;;;;1.42;1.33;;;;;;;;;;5074572;28;20049;-88
2023/02/18 02:15:28;;;;;;;0.70;0.70;;;;;;;;;;5074124;28;20106;-87
2023/02/18 02:18:04;;;;;;;1.35;1.27;;;;;;;;;;5074421;28;20048;-89
2023/02/18 02:20:51;;;;;;;0.77;0.77;;;;;;;;;;5056094;28;20045;-88
2023/02/18 02:23:38;;;;;;;0.88;0.88;;;;;;;;;;5054255;28;20098;-89
2023/02/18 02:26:19;;;;;;;5.45;5.25;;;;;;;;;;5020361;28;20045;-88
2023/02/18 02:29:19;;;;;;;1.25;1.25;;;;;;;;;;5054055;28;20701;-88
2023/02/18 02:32:03;;;;;;;1.95;1.85;;;;;;;;;;4973111;28;20047;-88
2023/02/18 02:34:36;;;;;;;2.17;2.08;;;;;;;;;;4972882;28;20055;-88
2023/02/18 02:37:06;;;;;;;5.88;2.47;;;;;;;;;;4973112;28;20058;-89
2023/02/18 02:39:37;;;;;;;2.05;1.92;;;;;;;;;;4968107;28;20106;-87
2023/02/18 02:42:08;;;;;;;1.45;1.35;;;;;;;;;;4953255;29;20102;-87
2023/02/18 02:44:38;;;;;;;0.82;0.82;;;;;;;;;;4953487;29;20051;-87
2023/02/18 02:47:09;;;;;;;0.85;0.82;;;;;;;;;;4953511;29;20055;-87
2023/02/18 02:49:43;;;;;;;1.45;1.35;;;;;;;;;;4953643;29;20054;-88
2023/02/18 02:52:11;;;;;;;0.75;0.73;;;;;;;;;;4953132;29;20110;-88
2023/02/18 02:54:38;;;;;;;10.05;3.63;;;;;;;;;;4953531;29;20052;-89
2023/02/18 02:57:05;;;;;;;4.15;3.10;;;;;;;;;;4953425;28;20050;-89
2023/02/18 02:59:32;;;;;;;1.90;1.80;;;;;;;;;;4953792;29;20051;-89
2023/02/18 03:02:03;;;;;;;1.55;1.45;;;;;;;;;;4969114;28;20049;-88
2023/02/18 03:04:45;;;;;;;1.77;1.67;;;;;;;;;;5033806;28;20049;-88
2023/02/18 03:07:18;;;;;;;1.55;1.45;;;;;;;;;;5031077;28;20403;-89
2023/02/18 03:09:52;;;;;;;0.82;0.82;;;;;;;;;;5033396;28;20475;-88
2023/02/18 03:12:23;;;;;;;2.85;2.60;;;;;;;;;;5033528;28;20103;-88
2023/02/18 03:14:54;;;;;;;0.82;0.82;;;;;;;;;;5033777;28;20054;-89
2023/02/18 03:17:23;;;;;;;2.10;2.00;;;;;;;;;;5033408;28;20086;-89
2023/02/18 03:19:52;;;;;;;1.77;1.67;;;;;;;;;;5033528;28;20045;-88
2023/02/18 03:22:21;;;;;;;1.85;1.75;;;;;;;;;;5033916;28;20052;-88
2023/02/18 03:24:50;;;;;;;0.82;0.82;;;;;;;;;;5033267;28;20058;-89
2023/02/18 03:27:18;;;;;;;1.33;1.33;;;;;;;;;;5033066;28;20053;-88
2023/02/18 03:29:48;;;;;;;0.63;0.63;;;;;;;;;;5033433;28;20050;-88
2023/02/18 03:32:18;;;;;;;1.20;1.05;;;;;;;;;;5033550;28;20049;-87
2023/02/18 03:34:48;;;;;;;0.95;0.93;;;;;;;;;;5033445;28;20130;-87
2023/02/18 03:37:15;;;;;;;1.75;1.65;;;;;;;;;;5033541;28;20099;-88
2023/02/18 03:39:45;;;;;;;1.50;1.40;;;;;;;;;;5033501;28;20049;-88
2023/02/18 03:42:12;;;;;;;1.75;1.73;;;;;;;;;;5033678;28;20108;-88
2023/02/18 03:44:38;;;;;;;1.20;1.20;;;;;;;;;;5033729;28;20049;-88
2023/02/18 03:47:05;;;;;;;2.40;2.20;;;;;;;;;;5033252;28;20049;-87
2023/02/18 03:49:32;;;;;;;1.00;0.88;;;;;;;;;;5033423;28;20049;-89
2023/02/18 03:51:58;;;;;;;0.65;0.65;;;;;;;;;;5033306;28;20053;-88
2023/02/18 03:54:25;;;;;;;1.63;1.52;;;;;;;;;;5033210;28;20058;-88
2023/02/18 03:56:52;;;;;;;1.77;1.67;;;;;;;;;;5033550;28;20095;-89
2023/02/18 03:59:19;;;;;;;1.85;1.75;;;;;;;;;;5033509;28;20056;-89
2023/02/18 04:01:45;;;;;;;1.35;1.33;;;;;;;;;;5033178;28;20049;-87
2023/02/18 04:04:12;;;;;;;2.05;1.95;;;;;;;;;;5033400;28;20049;-88
2023/02/18 04:06:38;;;;;;;1.33;1.30;;;;;;;;;;5033001;28;20521;-88
2023/02/18 04:09:07;;;;;;;1.73;1.67;;;;;;;;;;5034430;28;20049;-87
2023/02/18 04:11:34;;;;;;;0.40;0.40;;;;;;;;;;5036747;28;20049;-88
2023/02/18 04:14:02;;;;;;;2.58;2.47;;;;;;;;;;5037125;28;20050;-88
2023/02/18 04:16:29;;;;;;;2.45;1.10;;;;;;;;;;5037037;28;20045;-88
2023/02/18 04:18:55;;;;;;;2.08;1.98;;;;;;;;;;5051032;28;20489;-88
2023/02/18 04:21:22;;;;;;;3.97;3.65;;;;;;;;;;5076342;28;20044;-89
2023/02/18 04:23:48;;;;;;;2.08;1.98;;;;;;;;;;5076860;28;20052;-87
2023/02/18 04:26:15;;;;;;;1.40;1.35;;;;;;;;;;5076182;28;20098;-87
2023/02/18 04:28:41;;;;;;;0.77;0.77;;;;;;;;;;5076363;28;20490;-87
2023/02/18 04:31:10;;;;;;;1.20;1.17;;;;;;;;;;5076421;28;20098;-87
2023/02/18 04:33:37;;;;;;;1.42;1.33;;;;;;;;;;5070436;28;20131;-86
2023/02/18 04:36:03;;;;;;;1.73;1.63;;;;;;;;;;5056510;28;20044;-87
2023/02/18 04:38:30;;;;;;;2.25;2.15;;;;;;;;;;5059778;28;20080;-85
2023/02/18 04:40:56;;;;;;;2.03;1.85;;;;;;;;;;5061263;28;20049;-89
2023/02/18 04:43:23;;;;;;;1.52;1.50;;;;;;;;;;5058830;28;20053;-88
2023/02/18 04:45:49;;;;;;;3.33;3.13;;;;;;;;;;5049117;28;20494;-89
2023/02/18 04:48:18;;;;;;;1.02;1.02;;;;;;;;;;5037323;28;20042;-90
2023/02/18 04:50:45;;;;;;;3.05;2.85;;;;;;;;;;5036973;28;20049;-89
2023/02/18 04:53:11;;;;;;;2.22;1.80;;;;;;;;;;5036064;28;20057;-89
2023/02/18 04:55:38;;;;;;;1.00;1.00;;;;;;;;;;5035864;28;20057;-88
2023/02/18 04:58:04;;;;;;;1.17;1.17;;;;;;;;;;5036051;28;20049;-88
2023/02/18 05:00:31;;;;;;;1.00;1.00;;;;;;;;;;5035880;28;20046;-88
2023/02/18 05:02:57;;;;;;;3.72;3.42;;;;;;;;;;5036039;28;20056;-87
2023/02/18 05:05:25;;;;;;;0.60;0.60;;;;;;;;;;5035635;28;20056;-87
2023/02/18 05:07:51;;;;;;;1.25;1.15;;;;;;;;;;5067893;28;20048;-87
2023/02/18 05:10:18;;;;;;;1.08;1.08;;;;;;;;;;5075626;28;20048;-87
2023/02/18 05:12:45;;;;;;;1.63;1.52;;;;;;;;;;5075478;28;20094;-87
2023/02/18 05:15:11;;;;;;;3.22;1.80;;;;;;;;;;5075320;28;20048;-87
2023/02/18 05:17:38;;;;;;;1.52;1.45;;;;;;;;;;5075188;28;20053;-87
2023/02/18 05:20:05;;;;;;;2.25;2.15;;;;;;;;;;5074947;28;20056;-87
2023/02/18 05:22:32;;;;;;;3.40;1.58;;;;;;;;;;5062528;28;20056;-87
2023/02/18 05:24:59;;;;;;;1.27;1.10;;;;;;;;;;5055220;28;20045;-87
2023/02/18 05:27:25;;;;;;;5.35;2.45;;;;;;;;;;5055399;28;20053;-86
2023/02/18 05:29:52;;;;;;;2.75;2.58;;;;;;;;;;5054799;28;20045;-87
2023/02/18 05:32:18;;;;;;;2.38;2.28;;;;;;;;;;5055536;28;20055;-87
2023/02/18 05:34:45;;;;;;;1.95;1.85;;;;;;;;;;5055266;28;20102;-88
2023/02/18 05:37:13;;;;;;;2.47;2.38;;;;;;;;;;5055367;28;20057;-88
2023/02/18 05:39:41;;;;;;;2.38;2.05;;;;;;;;;;5042658;28;20450;-87
2023/02/18 05:42:08;;;;;;;3.38;2.40;;;;;;;;;;5035435;28;20530;-88
2023/02/18 05:44:34;;;;;;;0.65;0.65;;;;;;;;;;5035616;28;20060;-88
2023/02/18 05:47:02;;;;;;;1.27;1.17;;;;;;;;;;5035174;28;20049;-88
2023/02/18 05:49:28;;;;;;;6.97;2.90;;;;;;;;;;5034946;28;20053;-88
2023/02/18 05:51:55;;;;;;;7.28;3.28;;;;;;;;;;5035218;28;20061;-88
2023/02/18 05:54:22;;;;;;;1.25;1.23;;;;;;;;;;5034502;28;20080;-89
2023/02/18 05:56:50;;;;;;;0.63;0.63;;;;;;;;;;5034840;28;20053;-88
2023/02/18 05:59:16;;;;;;;0.85;0.85;;;;;;;;;;5034977;28;20045;-88
2023/02/18 06:01:43;;;;;;;1.88;1.77;;;;;;;;;;5034567;28;20056;-88
2023/02/18 06:04:10;;;;;;;2.35;2.22;;;;;;;;;;5034960;28;20111;-88
2023/02/18 06:06:36;;;;;;;2.55;2.35;;;;;;;;;;5034665;28;20124;-88
2023/02/18 06:09:03;;;;;;;0.88;0.88;;;;;;;;;;5034579;28;20053;-87
2023/02/18 06:11:30;;;;;;;1.08;0.98;;;;;;;;;;5034735;28;20048;-88
2023/02/18 06:13:58;;;;;;;1.10;1.00;;;;;;;;;;5034528;28;20045;-88
2023/02/18 06:16:25;;;;;;;1.77;1.67;;;;;;;;;;5034192;28;20052;-87
2023/02/18 06:18:52;;;;;;;1.00;1.00;;;;;;;;;;5034663;28;20041;-88
2023/02/18 06:21:18;;;;;;;2.28;2.17;;;;;;;;;;5034269;28;20491;-88
2023/02/18 06:23:45;;;;;;;2.67;2.50;;;;;;;;;;5034403;28;20054;-88
2023/02/18 06:26:12;;;;;;;4.72;2.28;;;;;;;;;;5034613;28;20053;-88
2023/02/18 06:28:38;;;;;;;0.43;0.40;;;;;;;;;;5034618;28;20056;-87
2023/02/18 06:31:06;;;;;;;1.40;1.33;;;;;;;;;;5049357;28;20045;-87
2023/02/18 06:33:33;;;;;;;2.78;2.58;;;;;;;;;;5053951;28;20707;-88
2023/02/18 06:36:00;;;;;;;4.50;3.83;;;;;;;;;;5054086;28;20048;-87
2023/02/18 06:38:27;;;;;;;3.05;2.78;;;;;;;;;;5053941;28;20461;-87
2023/02/18 06:40:54;;;;;;;1.13;1.10;;;;;;;;;;5053928;28;20498;-89
2023/02/18 06:43:22;;;;;;;2.17;1.77;;;;;;;;;;5053781;28;20045;-87
2023/02/18 06:45:48;;;;;;;3.47;2.88;;;;;;;;;;5053695;28;20056;-88
2023/02/18 06:48:16;;;;;;;3.75;3.45;;;;;;;;;;5053921;28;20456;-87
2023/02/18 06:50:43;;;;;;;2.72;2.55;;;;;;;;;;5053497;28;20788;-87
2023/02/18 06:53:10;;;;;;;8.23;5.63;;;;;;;;;;5053475;28;20422;-87
2023/02/18 06:55:36;;;;;;;3.58;3.25;;;;;;;;;;5053401;28;20552;-87
2023/02/18 06:58:03;;;;;;;4.30;3.42;;;;;;;;;;5053504;28;20068;-88
2023/02/18 07:00:30;;;;;;;4.78;3.53;;;;;;;;;;5053767;28;20057;-87
2023/02/18 07:02:56;;;;;;;3.65;3.35;;;;;;;;;;5041462;28;20060;-87
2023/02/18 07:05:24;;;;;;;3.72;3.53;;;;;;;;;;5030764;28;20372;-90
2023/02/18 07:07:51;;;;;;;6.63;6.22;;;;;;;;;;5014204;28;20053;-87
2023/02/18 07:10:24;;;;;;;7.25;5.70;;;;;;;;;;5027461;28;20111;-88
2023/02/18 07:12:51;;;;;;;3.95;3.65;;;;;;;;;;5058487;28;20048;-88
2023/02/18 07:15:20;;;;;;;5.25;4.38;;;;;;;;;;5041514;28;20038;-87
2023/02/18 07:17:46;;;;;;;8.98;3.58;;;;;;;;;;5015542;28;20050;-88
2023/02/18 07:20:13;;;;;;;6.50;5.90;;;;;;;;;;5014064;28;20050;-90
2023/02/18 07:22:41;;;;;;;5.50;4.43;;;;;;;;;;5014149;28;20134;-89
2023/02/18 07:25:07;;;;;;;4.72;4.32;;;;;;;;;;5013850;28;20054;-89
2023/02/18 07:27:34;;;;;;;3.17;1.90;;;;;;;;;;5014474;28;20050;-89
2023/02/18 07:30:00;;;;;;;5.07;4.63;;;;;;;;;;5013427;28;20116;-89
2023/02/18 07:32:27;;;;;;;2.85;2.63;;;;;;;;;;5013600;28;20061;-88
2023/02/18 07:34:54;;;;;;;4.85;3.70;;;;;;;;;;5033215;28;20041;-88
2023/02/18 07:37:20;;;;;;;3.17;2.83;;;;;;;;;;5033454;28;20557;-89
2023/02/18 07:39:48;;;;;;;2.58;2.38;;;;;;;;;;5034486;28;20072;-87
2023/02/18 07:42:15;;;;;;;4.45;2.80;;;;;;;;;;5033725;28;20057;-88
2023/02/18 07:44:42;;;;;;;3.35;3.15;;;;;;;;;;5036337;28;20049;-88
2023/02/18 07:47:09;;;;;;;2.13;1.73;;;;;;;;;;5036999;28;20111;-87
2023/02/18 07:49:35;;;;;;;1.80;1.70;;;;;;;;;;5037507;28;20049;-87
2023/02/18 07:52:02;;;;;;;3.83;3.08;;;;;;;;;;5036672;28;20048;-87
2023/02/18 07:54:28;;;;;;;4.07;3.83;;;;;;;;;;5037292;28;20072;-88
2023/02/18 07:56:56;;;;;;;4.20;3.85;;;;;;;;;;5037061;28;20733;-88
2023/02/18 07:59:23;;;;;;;5.15;3.83;;;;;;;;;;5037069;28;20047;-88
2023/02/18 08:01:49;;;;;;;3.00;2.53;;;;;;;;;;5037347;28;20045;-87
2023/02/18 08:04:16;;;;;;;5.07;3.05;;;;;;;;;;5036257;28;20442;-91
2023/02/18 08:06:44;;;;;;;2.78;2.60;;;;;;;;;;5034568;28;20048;-88
2023/02/18 08:09:11;;;;;;;3.83;3.53;;;;;;;;;;5023666;28;20061;-87
2023/02/18 08:11:38;;;;;;;3.05;2.80;;;;;;;;;;5018965;28;20050;-88
2023/02/18 08:14:06;;;;;;;4.25;4.05;;;;;;;;;;5020359;28;20049;-87
2023/02/18 08:16:33;;;;;;;2.42;2.22;;;;;;;;;;5020907;28;20100;-87
2023/02/18 08:19:00;;;;;;;4.47;4.10;;;;;;;;;;5027434;28;20046;-89
2023/02/18 08:21:27;;;;;;;3.83;2.88;;;;;;;;;;5027116;28;20089;-88
2023/02/18 08:23:53;;;;;;;6.38;5.78;;;;;;;;;;5037818;28;20053;-88
2023/02/18 08:26:20;;;;;;;8.20;3.10;;;;;;;;;;5046759;28;20057;-87
2023/02/18 08:28:47;;;;;;;4.07;3.40;;;;;;;;;;5043305;28;20053;-88
2023/02/18 08:31:18;;;;;;;3.70;3.42;;;;;;;;;;5036552;28;20049;-88
2023/02/18 08:33:44;;;;;;;3.45;3.25;;;;;;;;;;5036657;28;20041;-88
2023/02/18 08:36:11;;;;;;;3.45;3.20;;;;;;;;;;5036421;28;20049;-89
2023/02/18 08:38:37;;;;;;;6.90;3.85;;;;;;;;;;5036627;28;20053;-89
2023/02/18 08:41:05;;;;;;;2.67;2.47;;;;;;;;;;5036501;28;20112;-88
2023/02/18 08:43:31;;;;;;;5.22;4.40;;;;;;;;;;5036343;28;20049;-89
2023/02/18 08:45:58;;;;;;;6.55;5.60;;;;;;;;;;5036583;28;20049;-88
2023/02/18 08:48:26;;;;;;;4.57;4.28;;;;;;;;;;5037691;28;20052;-88
2023/02/18 08:50:53;;;;;;;7.53;4.70;;;;;;;;;;5036357;28;20046;-88
2023/02/18 08:53:19;;;;;;;4.32;4.05;;;;;;;;;;5035822;28;20057;-88
2023/02/18 08:55:46;;;;;;;3.60;3.38;;;;;;;;;;5035582;28;20053;-88
2023/02/18 08:58:12;;;;;;;4.50;4.15;;;;;;;;;;5036200;28;20053;-88
2023/02/18 09:00:39;;;;;;;4.70;4.45;;;;;;;;;;5035929;28;20053;-88
2023/02/18 09:03:06;;;;;;;4.25;3.92;;;;;;;;;;5043942;28;20061;-88
2023/02/18 09:05:34;;;;;;;6.50;5.88;;;;;;;;;;5036142;28;20050;-88
2023/02/18 09:08:01;;;;;;;5.18;4.45;;;;;;;;;;5036197;28;20046;-87
2023/02/18 09:10:27;;;;;;;3.97;3.75;;;;;;;;;;5035852;28;20451;-87
2023/02/18 09:12:54;;;;;;;5.55;4.95;;;;;;;;;;5035605;28;20049;-89
2023/02/18 09:15:20;;;;;;;12.45;7.57;;;;;;;;;;5035666;28;20053;-89
2023/02/18 09:17:47;;;;;;;7.85;7.15;;;;;;;;;;5035548;28;20054;-87
2023/02/18 09:20:14;;;;;;;9.27;7.53;;;;;;;;;;5035247;28;20442;-89
2023/02/18 09:22:41;;;;;;;4.68;4.22;;;;;;;;;;5035604;28;20092;-86
2023/02/18 09:25:08;;;;;;;6.97;3.88;;;;;;;;;;5016986;28;20056;-88
2023/02/18 09:27:35;;;;;;;8.55;7.93;;;;;;;;;;5015364;28;20057;-87
2023/02/18 09:30:01;;;;;;;6.93;6.22;;;;;;;;;;5016282;28;20053;-88
2023/02/18 09:32:28;;;;;;;7.68;4.07;;;;;;;;;;5024709;28;20124;-89
2023/02/18 09:34:54;;;;;;;8.88;6.00;;;;;;;;;;5034624;28;20042;-88
2023/02/18 09:37:21;;;;;;;6.95;5.82;;;;;;;;;;5034485;28;20111;-89
2023/02/18 09:39:49;;;;;;;9.70;8.70;;;;;;;;;;5034536;28;20053;-89
2023/02/18 09:42:18;;;;;;;6.43;4.90;;;;;;;;;;5034445;28;20049;-89
2023/02/18 09:44:46;;;;;;;6.80;6.30;;;;;;;;;;5045693;28;20049;-86
2023/02/18 09:47:14;;;;;;;7.53;6.85;;;;;;;;;;5055104;28;20052;-87
2023/02/18 09:49:44;;;;;;;9.88;7.38;;;;;;;;;;5055266;28;20449;-87
2023/02/18 09:52:12;;;;;;;8.65;6.72;;;;;;;;;;5054282;28;20041;-87
2023/02/18 09:54:39;;;;;;;7.90;6.72;;;;;;;;;;5054333;28;20049;-88
2023/02/18 09:57:15;;;;;;;5.75;5.15;;;;;;;;;;5048407;28;20095;-88
2023/02/18 09:59:43;;;;;;;8.05;7.22;;;;;;;;;;5034854;28;20045;-88
2023/02/18 10:02:10;;;;;;;6.30;5.68;;;;;;;;;;5034705;28;20115;-89
2023/02/18 10:04:40;;;;;;;6.70;6.28;;;;;;;;;;5034571;28;20107;-89
2023/02/18 10:07:06;;;;;;;6.72;6.18;;;;;;;;;;5034371;28;20057;-89
2023/02/18 10:09:34;;;;;;;7.28;6.53;;;;;;;;;;5034793;28;20057;-88
2023/02/18 10:12:08;;;;;;;8.63;5.65;;;;;;;;;;5034411;28;20045;-88
2023/02/18 10:14:36;;;;;;;8.35;6.47;;;;;;;;;;5031920;28;20054;-88
2023/02/18 10:17:03;;;;;;;6.57;6.03;;;;;;;;;;5034328;28;20111;-89
2023/02/18 10:19:31;;;;;;;5.07;4.53;;;;;;;;;;5034201;28;20465;-88
2023/02/18 10:21:59;;;;;;;8.77;7.88;;;;;;;;;;5034666;28;20049;-88
2023/02/18 10:24:31;;;;;;;6.72;5.25;;;;;;;;;;5033954;28;20054;-88
2023/02/18 10:26:58;;;;;;;9.50;6.45;;;;;;;;;;5034545;28;20045;-88
2023/02/18 10:29:25;;;;;;;6.97;6.47;;;;;;;;;;5034059;28;20486;-90
2023/02/18 10:31:56;;;;;;;7.85;6.70;;;;;;;;;;5033608;28;20045;-89
2023/02/18 10:34:26;;;;;;;9.68;7.10;;;;;;;;;;5033022;28;20125;-89
2023/02/18 10:36:55;;;;;;;7.28;6.68;;;;;;;;;;5033762;28;20060;-89
2023/02/18 10:39:35;;;;;;;47.53;6.63;;;;;;;;;;5034411;28;20453;-88
2023/02/18 10:42:09;;;;;;;6.07;5.40;;;;;;;;;;5034156;28;20041;-88
2023/02/18 10:44:41;;;;;;;4.95;4.50;;;;;;;;;;5033920;28;20049;-88
2023/02/18 10:47:17;;;;;;;6.88;6.32;;;;;;;;;;5030657;28;20053;-89
2023/02/18 10:49:55;;;;;;;9.32;6.00;;;;;;;;;;5013588;28;20560;-88
2023/02/18 10:52:21;;;;;;;7.03;5.55;;;;;;;;;;5013347;28;20711;-90
2023/02/18 10:54:49;;;;;;;7.15;6.72;;;;;;;;;;5013625;28;20080;-89
2023/02/18 10:57:17;;;;;;;8.65;6.63;;;;;;;;;;5013669;28;20565;-90
2023/02/18 10:59:53;;;;;;;5.32;4.93;;;;;;;;;;5013824;28;20054;-89
2023/02/18 11:02:24;;;;;;;7.50;6.53;;;;;;;;;;5016808;28;20041;-90
2023/02/18 11:04:51;;;;;;;8.80;6.53;;;;;;;;;;5013735;28;20069;-90
2023/02/18 11:07:20;;;;;;;11.23;7.55;;;;;;;;;;5014243;28;20042;-89
2023/02/18 11:09:48;;;;;;;7.45;6.80;;;;;;;;;;5013957;28;20050;-89
2023/02/18 11:12:16;;;;;;;6.40;5.80;;;;;;;;;;5013790;28;20053;-90
2023/02/18 11:14:44;;;;;;;7.22;6.57;;;;;;;;;;5013888;28;20046;-87
2023/02/18 11:17:16;;;;;;;5.80;5.35;;;;;;;;;;5013559;28;20058;-89
2023/02/18 11:19:51;;;;;;;10.35;7.00;;;;;;;;;;5013483;28;20580;-90
2023/02/18 11:22:19;;;;;;;6.45;5.43;;;;;;;;;;5013908;28;20053;-89
2023/02/18 11:24:49;;;;;;;10.45;7.68;;;;;;;;;;5013819;28;20050;-89
2023/02/18 11:27:21;;;;;;;10.73;7.97;;;;;;;;;;5013496;28;20049;-89
2023/02/18 11:29:48;;;;;;;8.77;8.10;;;;;;;;;;5014368;28;20108;-90
2023/02/18 11:32:15;;;;;;;8.95;8.05;;;;;;;;;;5013195;28;20514;-89
2023/02/18 11:34:44;;;;;;;11.93;9.18;;;;;;;;;;5016618;28;20050;-89
2023/02/18 11:37:16;;;;;;;8.57;7.88;;;;;;;;;;5033562;28;20057;-89
2023/02/18 11:39:44;;;;;;;9.93;7.53;;;;;;;;;;5032837;28;20060;-89
2023/02/18 11:42:13;;;;;;;15.25;8.90;;;;;;;;;;5033501;28;20045;-89
2023/02/18 11:44:41;;;;;;;10.60;8.73;;;;;;;;;;5035123;28;20057;-88
2023/02/18 11:47:20;;;;;;;10.88;8.52;;;;;;;;;;5034843;28;20076;-89
2023/02/18 11:49:59;;;;;;;12.30;10.20;;;;;;;;;;5034438;28;20053;-90
2023/02/18 11:52:27;;;;;;;10.15;9.10;;;;;;;;;;5016731;28;20551;-90
2023/02/18 11:55:01;;;;;;;11.23;7.45;;;;;;;;;;5013228;28;20476;-89
2023/02/18 11:57:28;;;;;;;11.07;9.70;;;;;;;;;;5013336;28;20137;-89
2023/02/18 11:59:55;;;;;;;12.80;9.50;;;;;;;;;;5012969;28;20053;-90
2023/02/18 12:02:28;;;;;;;10.82;9.05;;;;;;;;;;5013179;28;20037;-89
2023/02/18 12:04:58;;;;;;;10.48;9.45;;;;;;;;;;5013020;28;20050;-89
2023/02/18 12:07:27;;;;;;;10.82;10.00;;;;;;;;;;5030682;28;20049;-90
2023/02/18 12:09:58;;;;;;;11.73;9.95;;;;;;;;;;5032288;28;20103;-89
2023/02/18 12:12:26;;;;;;;8.43;7.60;;;;;;;;;;5032793;28;20049;-89
2023/02/18 12:14:55;;;;;;;10.43;9.43;;;;;;;;;;5033129;28;20046;-89
2023/02/18 12:17:41;;;;;;;8.35;7.68;;;;;;;;;;5033033;28;20445;-90
2023/02/18 12:20:22;;;;;;;10.48;7.00;;;;;;;;;;5033430;28;20457;-89
2023/02/18 12:22:52;;;;;;;9.52;7.80;;;;;;;;;;5029964;28;20083;-88
2023/02/18 12:25:31;;;;;;;10.35;8.23;;;;;;;;;;5032958;28;20111;-89
2023/02/18 12:28:05;;;;;;;8.27;7.25;;;;;;;;;;5032881;28;20057;-89
2023/02/18 12:30:37;;;;;;;11.60;10.55;;;;;;;;;;5034223;28;20057;-89
2023/02/18 12:33:08;;;;;;;11.65;10.63;;;;;;;;;;5050059;28;20049;-90
2023/02/18 12:35:43;;;;;;;14.38;9.15;;;;;;;;;;5038019;28;20056;-89
2023/02/18 12:38:16;;;;;;;9.32;8.50;;;;;;;;;;5036524;28;20049;-90
2023/02/18 12:40:57;;;;;;;10.32;8.60;;;;;;;;;;5037272;28;20041;-89
2023/02/18 12:43:30;;;;;;;10.60;9.57;;;;;;;;;;5036240;28;20049;-89
2023/02/18 12:46:14;;;;;;;9.23;8.35;;;;;;;;;;5036682;28;20053;-90
2023/02/18 12:48:49;;;;;;;9.18;8.38;;;;;;;;;;5035390;28;20060;-89
2023/02/18 12:51:23;;;;;;;10.75;8.98;;;;;;;;;;5053705;28;20114;-89
2023/02/18 12:53:56;;;;;;;8.10;6.43;;;;;;;;;;5056978;28;20067;-89
2023/02/18 12:56:36;;;;;;;9.93;8.90;;;;;;;;;;5056258;28;20049;-89
2023/02/18 12:59:08;;;;;;;11.88;9.95;;;;;;;;;;5042802;28;20050;-89
2023/02/18 13:01:38;;;;;;;9.77;7.90;;;;;;;;;;5035788;28;20046;-90
2023/02/18 13:04:19;;;;;;;11.55;8.18;;;;;;;;;;5028224;28;20100;-89
2023/02/18 13:06:58;;;;;;;10.98;8.23;;;;;;;;;;5015983;28;20112;-90
2023/02/18 13:09:31;;;;;;;13.65;8.05;;;;;;;;;;5015606;28;20061;-89
2023/02/18 13:12:06;;;;;;;13.07;11.10;;;;;;;;;;5015779;28;20526;-89
2023/02/18 13:14:34;;;;;;;8.48;7.68;;;;;;;;;;5015901;28;20508;-89
2023/02/18 13:17:02;;;;;;;10.60;9.63;;;;;;;;;;5034926;28;20045;-89
2023/02/18 13:19:31;;;;;;;10.35;8.85;;;;;;;;;;5040436;28;20042;-90
2023/02/18 13:21:59;;;;;;;13.40;11.40;;;;;;;;;;5035499;28;20053;-89
2023/02/18 13:24:30;;;;;;;12.70;11.60;;;;;;;;;;5041184;28;20052;-89
2023/02/18 13:26:58;;;;;;;11.50;10.48;;;;;;;;;;5054810;28;20067;-90
2023/02/18 13:29:28;;;;;;;14.05;10.18;;;;;;;;;;5049445;28;20049;-90
2023/02/18 13:32:02;;;;;;;10.07;9.18;;;;;;;;;;5031398;28;20053;-89
2023/02/18 13:34:31;;;;;;;11.85;10.88;;;;;;;;;;5025064;28;20049;-89
2023/02/18 13:37:03;;;;;;;10.93;10.10;;;;;;;;;;5034864;28;20052;-89
2023/02/18 13:39:30;;;;;;;10.25;9.35;;;;;;;;;;5014831;28;20503;-89
2023/02/18 13:42:11;;;;;;;12.85;11.75;;;;;;;;;;5033281;28;20049;-90
2023/02/18 13:45:02;;;;;;;11.43;10.05;;;;;;;;;;5034904;28;20053;-89
2023/02/18 13:47:39;;;;;;;8.93;8.10;;;;;;;;;;5047521;28;20483;-91
2023/02/18 13:50:24;;;;;;;10.75;9.43;;;;;;;;;;5014936;28;20049;-90
2023/02/18 13:52:51;;;;;;;13.05;10.98;;;;;;;;;;5014873;28;20057;-89
2023/02/18 13:55:19;;;;;;;13.23;11.80;;;;;;;;;;5015065;28;20058;-89
2023/02/18 13:57:47;;;;;;;15.18;10.27;;;;;;;;;;5015046;28;20042;-88
2023/02/18 14:00:20;;;;;;;12.70;10.88;;;;;;;;;;5028991;28;20131;-89
2023/02/18 14:02:55;;;;;;;11.38;10.35;;;;;;;;;;5034464;28;20041;-89
2023/02/18 14:05:23;;;;;;;6.65;6.20;;;;;;;;;;5017346;28;20061;-90
2023/02/18 14:07:50;;;;;;;12.10;9.77;;;;;;;;;;5054490;28;20045;-89
2023/02/18 14:10:41;;;;;;;9.55;8.60;;;;;;;;;;5054230;28;20621;-90
2023/02/18 14:13:23;;;;;;;11.80;10.20;;;;;;;;;;5044077;28;20048;-89
2023/02/18 14:15:55;;;;;;;10.88;10.15;;;;;;;;;;5053962;28;20103;-90
2023/02/18 14:18:27;;;;;;;14.50;13.60;;;;;;;;;;5053964;28;20094;-90
2023/02/18 14:21:03;;;;;;;10.23;9.35;;;;;;;;;;5038979;28;20045;-89
2023/02/18 14:23:30;;;;;;;;;;;;;;;;;;5015073;28;20109;-90
2023/02/18 14:26:04;;;;;;;7.82;7.03;;;;;;;;;;5019915;28;21563;-88
2023/02/18 14:28:38;;;;;;;7.68;7.05;;;;;;;;;;5054101;28;20479;-90
2023/02/18 14:31:18;;;;;;;9.25;8.38;;;;;;;;;;5053703;28;20044;-89
2023/02/18 14:33:49;;;;;;;9.18;7.22;;;;;;;;;;5045555;28;20049;-90
2023/02/18 14:36:19;;;;;;;9.88;8.93;;;;;;;;;;5053605;28;20045;-91
2023/02/18 14:38:50;;;;;;;8.63;7.68;;;;;;;;;;5038458;28;20053;-89
2023/02/18 14:41:26;;;;;;;8.57;7.75;;;;;;;;;;5033841;28;20052;-89
2023/02/18 14:44:01;;;;;;;12.40;7.32;;;;;;;;;;5033632;28;20115;-89
2023/02/18 14:46:35;;;;;;;11.35;9.32;;;;;;;;;;5034293;28;20053;-87
2023/02/18 14:49:26;;;;;;;10.20;9.13;;;;;;;;;;5018504;28;20156;-88
2023/02/18 14:51:53;;;;;;;12.00;9.98;;;;;;;;;;5023666;28;20045;-89
2023/02/18 14:54:21;;;;;;;11.65;10.55;;;;;;;;;;5037159;28;20111;-88